sensor_id;sensor_type;location;lat;lon;timestamp;P1;durP1;ratioP1;P2;durP2;ratioP2
31037;SDS011;17702;47.590;7.666;2023-07-13T00:02:07;18.70;;;14.43;;
31037;SDS011;17702;47.590;7.666;2023-07-13T00:04:34;9.68;;;6.57;;
31037;SDS011;17702;47.590;7.666;2023-07-13T00:06:59;7.53;;;1.80;;
31037;SDS011;17702;47.590;7.666;2023-07-13T00:09:25;2.60;;;1.85;;
31037;SDS011;17702;47.590;7.666;2023-07-13T00:11:55;3.40;;;1.90;;
31037;SDS011;17702;47.590;7.666;2023-07-13T00:14:23;4.03;;;2.05;;
31037;SDS011;17702;47.590;7.666;2023-07-13T00:16:50;3.22;;;1.65;;
31037;SDS011;17702;47.590;7.666;2023-07-13T00:19:16;2.85;;;1.50;;
31037;SDS011;17702;47.590;7.666;2023-07-13T00:21:42;3.90;;;1.73;;
31037;SDS011;17702;47.590;7.666;2023-07-13T00:24:08;6.32;;;4.57;;
31037;SDS011;17702;47.590;7.666;2023-07-13T00:26:40;3.00;;;1.75;;
31037;SDS011;17702;47.590;7.666;2023-07-13T00:29:09;4.72;;;4.28;;
31037;SDS011;17702;47.590;7.666;2023-07-13T00:31:35;3.63;;;3.13;;
31037;SDS011;17702;47.590;7.666;2023-07-13T00:34:01;3.55;;;2.00;;
31037;SDS011;17702;47.590;7.666;2023-07-13T00:36:27;2.63;;;1.70;;
31037;SDS011;17702;47.590;7.666;2023-07-13T00:38:52;4.07;;;2.10;;
31037;SDS011;17702;47.590;7.666;2023-07-13T00:41:18;2.25;;;1.58;;
31037;SDS011;17702;47.590;7.666;2023-07-13T00:43:44;5.95;;;1.92;;
31037;SDS011;17702;47.590;7.666;2023-07-13T00:46:12;3.05;;;2.00;;
31037;SDS011;17702;47.590;7.666;2023-07-13T00:48:37;6.40;;;5.82;;
31037;SDS011;17702;47.590;7.666;2023-07-13T00:51:04;7.65;;;1.60;;
31037;SDS011;17702;47.590;7.666;2023-07-13T00:53:29;4.65;;;4.22;;
31037;SDS011;17702;47.590;7.666;2023-07-13T00:55:57;6.03;;;2.47;;
31037;SDS011;17702;47.590;7.666;2023-07-13T00:58:24;1.95;;;1.65;;
31037;SDS011;17702;47.590;7.666;2023-07-13T01:00:51;2.78;;;1.73;;
31037;SDS011;17702;47.590;7.666;2023-07-13T01:03:17;2.72;;;1.83;;
31037;SDS011;17702;47.590;7.666;2023-07-13T01:05:44;2.10;;;1.60;;
31037;SDS011;17702;47.590;7.666;2023-07-13T01:08:13;2.13;;;1.50;;
31037;SDS011;17702;47.590;7.666;2023-07-13T01:10:39;4.00;;;1.77;;
31037;SDS011;17702;47.590;7.666;2023-07-13T01:13:09;2.95;;;1.90;;
31037;SDS011;17702;47.590;7.666;2023-07-13T01:18:10;3.38;;;1.58;;
31037;SDS011;17702;47.590;7.666;2023-07-13T01:20:38;6.15;;;1.92;;
31037;SDS011;17702;47.590;7.666;2023-07-13T01:23:09;3.92;;;1.80;;
31037;SDS011;17702;47.590;7.666;2023-07-13T01:25:36;2.85;;;1.92;;
31037;SDS011;17702;47.590;7.666;2023-07-13T01:28:06;3.28;;;1.70;;
31037;SDS011;17702;47.590;7.666;2023-07-13T01:30:36;3.47;;;1.55;;
31037;SDS011;17702;47.590;7.666;2023-07-13T01:33:05;5.38;;;1.80;;
31037;SDS011;17702;47.590;7.666;2023-07-13T01:35:34;3.10;;;1.70;;
31037;SDS011;17702;47.590;7.666;2023-07-13T01:38:01;2.40;;;1.60;;
31037;SDS011;17702;47.590;7.666;2023-07-13T01:40:27;3.13;;;1.63;;
31037;SDS011;17702;47.590;7.666;2023-07-13T01:42:54;2.92;;;1.65;;
31037;SDS011;17702;47.590;7.666;2023-07-13T01:45:20;5.70;;;1.73;;
31037;SDS011;17702;47.590;7.666;2023-07-13T01:47:46;5.03;;;2.25;;
31037;SDS011;17702;47.590;7.666;2023-07-13T01:50:11;5.50;;;1.88;;
31037;SDS011;17702;47.590;7.666;2023-07-13T01:52:37;3.95;;;1.75;;
31037;SDS011;17702;47.590;7.666;2023-07-13T01:55:03;4.05;;;1.85;;
31037;SDS011;17702;47.590;7.666;2023-07-13T01:57:29;4.00;;;1.90;;
31037;SDS011;17702;47.590;7.666;2023-07-13T01:59:54;3.65;;;2.00;;
31037;SDS011;17702;47.590;7.666;2023-07-13T02:02:20;2.25;;;2.03;;
31037;SDS011;17702;47.590;7.666;2023-07-13T02:04:45;3.90;;;1.88;;
31037;SDS011;17702;47.590;7.666;2023-07-13T02:07:11;2.63;;;1.58;;
31037;SDS011;17702;47.590;7.666;2023-07-13T02:09:37;3.70;;;1.80;;
31037;SDS011;17702;47.590;7.666;2023-07-13T02:12:02;1.50;;;1.40;;
31037;SDS011;17702;47.590;7.666;2023-07-13T02:14:29;2.97;;;1.83;;
31037;SDS011;17702;47.590;7.666;2023-07-13T02:16:54;2.38;;;1.80;;
31037;SDS011;17702;47.590;7.666;2023-07-13T02:19:20;3.42;;;1.42;;
31037;SDS011;17702;47.590;7.666;2023-07-13T02:21:46;1.73;;;1.63;;
31037;SDS011;17702;47.590;7.666;2023-07-13T02:24:11;3.63;;;1.80;;
31037;SDS011;17702;47.590;7.666;2023-07-13T02:26:42;6.15;;;2.05;;
31037;SDS011;17702;47.590;7.666;2023-07-13T02:29:08;2.85;;;1.88;;
31037;SDS011;17702;47.590;7.666;2023-07-13T02:31:34;3.08;;;1.52;;
31037;SDS011;17702;47.590;7.666;2023-07-13T02:34:01;10.07;;;2.25;;
31037;SDS011;17702;47.590;7.666;2023-07-13T02:36:27;6.32;;;1.98;;
31037;SDS011;17702;47.590;7.666;2023-07-13T02:38:52;7.70;;;1.75;;
31037;SDS011;17702;47.590;7.666;2023-07-13T02:41:18;10.55;;;1.88;;
31037;SDS011;17702;47.590;7.666;2023-07-13T02:43:43;3.03;;;1.95;;
31037;SDS011;17702;47.590;7.666;2023-07-13T02:46:09;2.60;;;1.33;;
31037;SDS011;17702;47.590;7.666;2023-07-13T02:48:35;2.80;;;1.50;;
31037;SDS011;17702;47.590;7.666;2023-07-13T02:51:02;4.45;;;1.35;;
31037;SDS011;17702;47.590;7.666;2023-07-13T02:53:28;7.47;;;1.60;;
31037;SDS011;17702;47.590;7.666;2023-07-13T02:55:54;7.15;;;2.03;;
31037;SDS011;17702;47.590;7.666;2023-07-13T02:58:19;5.90;;;1.85;;
31037;SDS011;17702;47.590;7.666;2023-07-13T03:00:45;8.07;;;2.03;;
31037;SDS011;17702;47.590;7.666;2023-07-13T03:03:13;2.63;;;1.73;;
31037;SDS011;17702;47.590;7.666;2023-07-13T03:05:40;4.10;;;1.92;;
31037;SDS011;17702;47.590;7.666;2023-07-13T03:08:07;5.63;;;1.85;;
31037;SDS011;17702;47.590;7.666;2023-07-13T03:10:33;9.43;;;1.80;;
31037;SDS011;17702;47.590;7.666;2023-07-13T03:12:59;3.17;;;1.60;;
31037;SDS011;17702;47.590;7.666;2023-07-13T03:15:24;3.05;;;1.60;;
31037;SDS011;17702;47.590;7.666;2023-07-13T03:17:50;6.10;;;1.73;;
31037;SDS011;17702;47.590;7.666;2023-07-13T03:20:15;5.05;;;1.40;;
31037;SDS011;17702;47.590;7.666;2023-07-13T03:22:41;3.45;;;1.60;;
31037;SDS011;17702;47.590;7.666;2023-07-13T03:25:07;3.78;;;1.70;;
31037;SDS011;17702;47.590;7.666;2023-07-13T03:27:33;4.15;;;1.52;;
31037;SDS011;17702;47.590;7.666;2023-07-13T03:29:59;2.13;;;1.92;;
31037;SDS011;17702;47.590;7.666;2023-07-13T03:32:24;3.47;;;1.73;;
31037;SDS011;17702;47.590;7.666;2023-07-13T03:34:50;4.53;;;1.58;;
31037;SDS011;17702;47.590;7.666;2023-07-13T03:37:16;4.28;;;1.50;;
31037;SDS011;17702;47.590;7.666;2023-07-13T03:39:41;4.43;;;1.80;;
31037;SDS011;17702;47.590;7.666;2023-07-13T03:42:07;6.00;;;1.58;;
31037;SDS011;17702;47.590;7.666;2023-07-13T03:44:35;5.10;;;1.70;;
31037;SDS011;17702;47.590;7.666;2023-07-13T03:47:01;3.88;;;1.80;;
31037;SDS011;17702;47.590;7.666;2023-07-13T03:49:26;2.75;;;1.65;;
31037;SDS011;17702;47.590;7.666;2023-07-13T03:51:52;5.32;;;1.95;;
31037;SDS011;17702;47.590;7.666;2023-07-13T03:54:18;5.07;;;1.70;;
31037;SDS011;17702;47.590;7.666;2023-07-13T03:56:43;12.00;;;2.30;;
31037;SDS011;17702;47.590;7.666;2023-07-13T03:59:09;5.90;;;1.92;;
31037;SDS011;17702;47.590;7.666;2023-07-13T04:01:35;4.20;;;1.95;;
31037;SDS011;17702;47.590;7.666;2023-07-13T04:04:00;4.82;;;1.70;;
31037;SDS011;17702;47.590;7.666;2023-07-13T04:06:27;3.30;;;1.95;;
31037;SDS011;17702;47.590;7.666;2023-07-13T04:08:55;3.92;;;1.60;;
31037;SDS011;17702;47.590;7.666;2023-07-13T04:11:23;3.13;;;1.23;;
31037;SDS011;17702;47.590;7.666;2023-07-13T04:13:50;3.72;;;1.55;;
31037;SDS011;17702;47.590;7.666;2023-07-13T04:16:17;3.70;;;1.55;;
31037;SDS011;17702;47.590;7.666;2023-07-13T04:18:44;2.65;;;1.38;;
31037;SDS011;17702;47.590;7.666;2023-07-13T04:21:10;2.78;;;1.42;;
31037;SDS011;17702;47.590;7.666;2023-07-13T04:23:36;2.25;;;1.25;;
31037;SDS011;17702;47.590;7.666;2023-07-13T04:26:03;4.68;;;1.50;;
31037;SDS011;17702;47.590;7.666;2023-07-13T04:28:28;2.30;;;1.50;;
31037;SDS011;17702;47.590;7.666;2023-07-13T04:30:55;3.03;;;1.58;;
31037;SDS011;17702;47.590;7.666;2023-07-13T04:33:20;4.70;;;1.42;;
31037;SDS011;17702;47.590;7.666;2023-07-13T04:35:47;7.65;;;1.95;;
31037;SDS011;17702;47.590;7.666;2023-07-13T04:38:21;5.55;;;2.08;;
31037;SDS011;17702;47.590;7.666;2023-07-13T04:40:53;3.17;;;1.52;;
31037;SDS011;17702;47.590;7.666;2023-07-13T04:43:23;8.40;;;1.50;;
31037;SDS011;17702;47.590;7.666;2023-07-13T04:45:50;7.13;;;2.03;;
31037;SDS011;17702;47.590;7.666;2023-07-13T04:48:17;5.30;;;1.77;;
31037;SDS011;17702;47.590;7.666;2023-07-13T04:50:42;4.18;;;1.90;;
31037;SDS011;17702;47.590;7.666;2023-07-13T04:53:08;2.65;;;1.73;;
31037;SDS011;17702;47.590;7.666;2023-07-13T04:55:35;5.03;;;1.67;;
31037;SDS011;17702;47.590;7.666;2023-07-13T04:58:01;5.97;;;1.75;;
31037;SDS011;17702;47.590;7.666;2023-07-13T05:00:27;3.40;;;1.60;;
31037;SDS011;17702;47.590;7.666;2023-07-13T05:02:55;2.88;;;1.70;;
31037;SDS011;17702;47.590;7.666;2023-07-13T05:05:22;2.03;;;1.55;;
31037;SDS011;17702;47.590;7.666;2023-07-13T05:07:48;2.78;;;1.30;;
31037;SDS011;17702;47.590;7.666;2023-07-13T05:10:14;5.50;;;1.70;;
31037;SDS011;17702;47.590;7.666;2023-07-13T05:12:40;4.35;;;1.55;;
31037;SDS011;17702;47.590;7.666;2023-07-13T05:15:06;3.10;;;1.40;;
31037;SDS011;17702;47.590;7.666;2023-07-13T05:17:31;3.95;;;1.40;;
31037;SDS011;17702;47.590;7.666;2023-07-13T05:19:57;5.05;;;1.55;;
31037;SDS011;17702;47.590;7.666;2023-07-13T05:22:23;2.88;;;1.50;;
31037;SDS011;17702;47.590;7.666;2023-07-13T05:24:48;6.20;;;1.55;;
31037;SDS011;17702;47.590;7.666;2023-07-13T05:27:14;16.50;;;1.83;;
31037;SDS011;17702;47.590;7.666;2023-07-13T05:29:40;2.22;;;1.35;;
31037;SDS011;17702;47.590;7.666;2023-07-13T05:32:06;3.33;;;1.23;;
31037;SDS011;17702;47.590;7.666;2023-07-13T05:34:31;3.03;;;1.25;;
31037;SDS011;17702;47.590;7.666;2023-07-13T05:36:57;2.55;;;1.23;;
31037;SDS011;17702;47.590;7.666;2023-07-13T05:39:23;1.92;;;1.10;;
31037;SDS011;17702;47.590;7.666;2023-07-13T05:41:49;6.15;;;1.45;;
31037;SDS011;17702;47.590;7.666;2023-07-13T05:44:15;7.53;;;1.40;;
31037;SDS011;17702;47.590;7.666;2023-07-13T05:46:40;2.33;;;1.30;;
31037;SDS011;17702;47.590;7.666;2023-07-13T05:49:06;5.57;;;1.10;;
31037;SDS011;17702;47.590;7.666;2023-07-13T05:51:32;2.85;;;1.63;;
31037;SDS011;17702;47.590;7.666;2023-07-13T05:53:57;6.25;;;1.52;;
31037;SDS011;17702;47.590;7.666;2023-07-13T05:56:23;6.47;;;1.30;;
31037;SDS011;17702;47.590;7.666;2023-07-13T05:58:50;3.20;;;1.42;;
31037;SDS011;17702;47.590;7.666;2023-07-13T06:01:16;4.80;;;1.50;;
31037;SDS011;17702;47.590;7.666;2023-07-13T06:03:42;1.77;;;1.10;;
31037;SDS011;17702;47.590;7.666;2023-07-13T06:06:09;3.78;;;1.50;;
31037;SDS011;17702;47.590;7.666;2023-07-13T06:08:35;2.00;;;1.00;;
31037;SDS011;17702;47.590;7.666;2023-07-13T06:11:06;6.05;;;1.55;;
31037;SDS011;17702;47.590;7.666;2023-07-13T06:13:37;3.88;;;1.10;;
31037;SDS011;17702;47.590;7.666;2023-07-13T06:16:03;2.80;;;1.20;;
31037;SDS011;17702;47.590;7.666;2023-07-13T06:18:29;3.28;;;1.20;;
31037;SDS011;17702;47.590;7.666;2023-07-13T06:20:56;7.25;;;1.20;;
31037;SDS011;17702;47.590;7.666;2023-07-13T06:23:22;2.33;;;1.27;;
31037;SDS011;17702;47.590;7.666;2023-07-13T06:25:48;2.75;;;1.30;;
31037;SDS011;17702;47.590;7.666;2023-07-13T06:28:13;1.45;;;0.80;;
31037;SDS011;17702;47.590;7.666;2023-07-13T06:30:39;7.15;;;1.52;;
31037;SDS011;17702;47.590;7.666;2023-07-13T06:33:05;6.18;;;1.30;;
31037;SDS011;17702;47.590;7.666;2023-07-13T06:35:30;6.40;;;1.25;;
31037;SDS011;17702;47.590;7.666;2023-07-13T06:37:56;2.10;;;1.20;;
31037;SDS011;17702;47.590;7.666;2023-07-13T06:40:22;6.82;;;1.10;;
31037;SDS011;17702;47.590;7.666;2023-07-13T06:42:48;4.00;;;1.15;;
31037;SDS011;17702;47.590;7.666;2023-07-13T06:45:13;2.53;;;1.00;;
31037;SDS011;17702;47.590;7.666;2023-07-13T06:47:39;3.88;;;0.90;;
31037;SDS011;17702;47.590;7.666;2023-07-13T06:50:05;5.68;;;1.27;;
31037;SDS011;17702;47.590;7.666;2023-07-13T06:52:30;2.08;;;0.80;;
31037;SDS011;17702;47.590;7.666;2023-07-13T06:54:56;3.25;;;0.95;;
31037;SDS011;17702;47.590;7.666;2023-07-13T06:57:22;2.38;;;1.00;;
31037;SDS011;17702;47.590;7.666;2023-07-13T06:59:47;3.80;;;0.98;;
31037;SDS011;17702;47.590;7.666;2023-07-13T07:02:13;1.20;;;0.90;;
31037;SDS011;17702;47.590;7.666;2023-07-13T07:04:39;4.45;;;1.70;;
31037;SDS011;17702;47.590;7.666;2023-07-13T07:07:04;2.65;;;0.90;;
31037;SDS011;17702;47.590;7.666;2023-07-13T07:09:30;1.70;;;0.90;;
31037;SDS011;17702;47.590;7.666;2023-07-13T07:11:56;9.00;;;6.40;;
31037;SDS011;17702;47.590;7.666;2023-07-13T07:14:22;6.13;;;1.20;;
31037;SDS011;17702;47.590;7.666;2023-07-13T07:16:49;2.78;;;0.90;;
31037;SDS011;17702;47.590;7.666;2023-07-13T07:19:15;6.53;;;1.40;;
31037;SDS011;17702;47.590;7.666;2023-07-13T07:21:41;2.47;;;0.80;;
31037;SDS011;17702;47.590;7.666;2023-07-13T07:24:07;8.43;;;1.65;;
31037;SDS011;17702;47.590;7.666;2023-07-13T07:26:32;2.17;;;0.98;;
31037;SDS011;17702;47.590;7.666;2023-07-13T07:28:58;3.20;;;0.90;;
31037;SDS011;17702;47.590;7.666;2023-07-13T07:31:24;2.92;;;1.10;;
31037;SDS011;17702;47.590;7.666;2023-07-13T07:33:50;1.95;;;0.98;;
31037;SDS011;17702;47.590;7.666;2023-07-13T07:36:16;9.20;;;2.03;;
31037;SDS011;17702;47.590;7.666;2023-07-13T07:38:42;2.53;;;1.15;;
31037;SDS011;17702;47.590;7.666;2023-07-13T07:41:08;4.47;;;1.10;;
31037;SDS011;17702;47.590;7.666;2023-07-13T07:43:33;1.88;;;1.10;;
31037;SDS011;17702;47.590;7.666;2023-07-13T07:45:59;1.67;;;1.00;;
31037;SDS011;17702;47.590;7.666;2023-07-13T07:48:25;5.43;;;1.10;;
31037;SDS011;17702;47.590;7.666;2023-07-13T07:50:50;5.72;;;1.35;;
31037;SDS011;17702;47.590;7.666;2023-07-13T07:53:16;3.38;;;2.03;;
31037;SDS011;17702;47.590;7.666;2023-07-13T07:55:42;3.97;;;1.20;;
31037;SDS011;17702;47.590;7.666;2023-07-13T07:58:07;9.35;;;2.42;;
31037;SDS011;17702;47.590;7.666;2023-07-13T08:00:33;4.00;;;0.90;;
31037;SDS011;17702;47.590;7.666;2023-07-13T08:03:00;5.10;;;1.00;;
31037;SDS011;17702;47.590;7.666;2023-07-13T08:05:26;3.15;;;1.02;;
31037;SDS011;17702;47.590;7.666;2023-07-13T08:07:52;9.95;;;1.42;;
31037;SDS011;17702;47.590;7.666;2023-07-13T08:10:18;3.88;;;0.98;;
31037;SDS011;17702;47.590;7.666;2023-07-13T08:12:43;5.60;;;1.23;;
31037;SDS011;17702;47.590;7.666;2023-07-13T08:15:11;5.28;;;1.15;;
31037;SDS011;17702;47.590;7.666;2023-07-13T08:17:38;2.60;;;1.20;;
31037;SDS011;17702;47.590;7.666;2023-07-13T08:20:04;4.85;;;1.20;;
31037;SDS011;17702;47.590;7.666;2023-07-13T08:22:30;4.03;;;1.27;;
31037;SDS011;17702;47.590;7.666;2023-07-13T08:24:56;1.17;;;0.65;;
31037;SDS011;17702;47.590;7.666;2023-07-13T08:27:22;4.30;;;1.30;;
31037;SDS011;17702;47.590;7.666;2023-07-13T08:29:49;2.22;;;0.90;;
31037;SDS011;17702;47.590;7.666;2023-07-13T08:32:15;4.72;;;1.05;;
31037;SDS011;17702;47.590;7.666;2023-07-13T08:34:43;1.45;;;0.70;;
31037;SDS011;17702;47.590;7.666;2023-07-13T08:37:08;5.07;;;1.17;;
31037;SDS011;17702;47.590;7.666;2023-07-13T08:39:34;4.30;;;0.85;;
31037;SDS011;17702;47.590;7.666;2023-07-13T08:42:05;2.53;;;0.90;;
31037;SDS011;17702;47.590;7.666;2023-07-13T08:44:48;6.05;;;0.90;;
31037;SDS011;17702;47.590;7.666;2023-07-13T08:47:39;1.23;;;0.90;;
31037;SDS011;17702;47.590;7.666;2023-07-13T08:50:14;1.05;;;0.90;;
31037;SDS011;17702;47.590;7.666;2023-07-13T08:52:43;5.72;;;0.98;;
31037;SDS011;17702;47.590;7.666;2023-07-13T08:55:12;5.63;;;1.42;;
31037;SDS011;17702;47.590;7.666;2023-07-13T08:57:38;1.63;;;1.02;;
31037;SDS011;17702;47.590;7.666;2023-07-13T09:00:09;2.85;;;0.90;;
31037;SDS011;17702;47.590;7.666;2023-07-13T09:02:48;3.33;;;1.02;;
31037;SDS011;17702;47.590;7.666;2023-07-13T09:16:25;2.83;;;0.70;;
31037;SDS011;17702;47.590;7.666;2023-07-13T09:18:51;1.08;;;0.65;;
31037;SDS011;17702;47.590;7.666;2023-07-13T09:21:25;0.73;;;0.60;;
31037;SDS011;17702;47.590;7.666;2023-07-13T09:23:58;3.20;;;0.98;;
31037;SDS011;17702;47.590;7.666;2023-07-13T09:26:42;12.80;;;1.52;;
31037;SDS011;17702;47.590;7.666;2023-07-13T09:29:13;4.13;;;1.70;;
31037;SDS011;17702;47.590;7.666;2023-07-13T09:31:46;3.42;;;0.98;;
31037;SDS011;17702;47.590;7.666;2023-07-13T09:34:17;1.35;;;0.70;;
31037;SDS011;17702;47.590;7.666;2023-07-13T09:36:42;1.05;;;0.73;;
31037;SDS011;17702;47.590;7.666;2023-07-13T09:42:00;4.10;;;0.80;;
31037;SDS011;17702;47.590;7.666;2023-07-13T09:44:36;2.05;;;0.60;;
31037;SDS011;17702;47.590;7.666;2023-07-13T09:47:03;1.98;;;0.60;;
31037;SDS011;17702;47.590;7.666;2023-07-13T09:49:41;1.65;;;0.98;;
31037;SDS011;17702;47.590;7.666;2023-07-13T09:52:10;2.40;;;0.73;;
31037;SDS011;17702;47.590;7.666;2023-07-13T09:54:39;2.95;;;0.98;;
31037;SDS011;17702;47.590;7.666;2023-07-13T09:57:12;3.28;;;0.80;;
31037;SDS011;17702;47.590;7.666;2023-07-13T09:59:43;3.42;;;0.77;;
31037;SDS011;17702;47.590;7.666;2023-07-13T10:04:59;1.50;;;0.63;;
31037;SDS011;17702;47.590;7.666;2023-07-13T10:07:29;3.08;;;0.90;;
31037;SDS011;17702;47.590;7.666;2023-07-13T10:09:57;3.40;;;0.82;;
31037;SDS011;17702;47.590;7.666;2023-07-13T10:12:26;1.35;;;0.93;;
31037;SDS011;17702;47.590;7.666;2023-07-13T10:14:54;1.65;;;1.15;;
31037;SDS011;17702;47.590;7.666;2023-07-13T10:17:28;1.20;;;0.85;;
31037;SDS011;17702;47.590;7.666;2023-07-13T10:20:00;3.13;;;1.05;;
31037;SDS011;17702;47.590;7.666;2023-07-13T10:25:16;1.20;;;0.80;;
31037;SDS011;17702;47.590;7.666;2023-07-13T10:27:44;2.53;;;0.90;;
31037;SDS011;17702;47.590;7.666;2023-07-13T10:30:23;1.67;;;1.08;;
31037;SDS011;17702;47.590;7.666;2023-07-13T10:32:53;1.77;;;1.17;;
31037;SDS011;17702;47.590;7.666;2023-07-13T10:35:19;4.18;;;1.25;;
31037;SDS011;17702;47.590;7.666;2023-07-13T10:37:55;1.20;;;0.90;;
31037;SDS011;17702;47.590;7.666;2023-07-13T10:40:57;1.10;;;0.65;;
31037;SDS011;17702;47.590;7.666;2023-07-13T10:43:39;5.30;;;0.90;;
31037;SDS011;17702;47.590;7.666;2023-07-13T10:46:10;1.67;;;0.80;;
31037;SDS011;17702;47.590;7.666;2023-07-13T10:48:38;2.90;;;1.63;;
31037;SDS011;17702;47.590;7.666;2023-07-13T10:51:07;3.83;;;1.00;;
31037;SDS011;17702;47.590;7.666;2023-07-13T10:53:35;1.25;;;0.75;;
31037;SDS011;17702;47.590;7.666;2023-07-13T11:01:10;1.42;;;0.70;;
31037;SDS011;17702;47.590;7.666;2023-07-13T11:11:53;1.17;;;0.63;;
31037;SDS011;17702;47.590;7.666;2023-07-13T11:14:28;2.35;;;0.60;;
31037;SDS011;17702;47.590;7.666;2023-07-13T11:16:56;2.22;;;0.65;;
31037;SDS011;17702;47.590;7.666;2023-07-13T11:27:22;2.08;;;0.60;;
31037;SDS011;17702;47.590;7.666;2023-07-13T11:30:23;2.17;;;0.55;;
31037;SDS011;17702;47.590;7.666;2023-07-13T11:35:49;1.02;;;0.63;;
31037;SDS011;17702;47.590;7.666;2023-07-13T11:38:17;5.18;;;0.82;;
31037;SDS011;17702;47.590;7.666;2023-07-13T11:40:46;1.33;;;0.60;;
31037;SDS011;17702;47.590;7.666;2023-07-13T11:43:14;2.95;;;0.68;;
31037;SDS011;17702;47.590;7.666;2023-07-13T11:45:42;1.58;;;0.68;;
31037;SDS011;17702;47.590;7.666;2023-07-13T11:48:17;1.63;;;0.75;;
31037;SDS011;17702;47.590;7.666;2023-07-13T11:50:49;1.30;;;0.68;;
31037;SDS011;17702;47.590;7.666;2023-07-13T11:53:21;2.72;;;0.85;;
31037;SDS011;17702;47.590;7.666;2023-07-13T11:55:47;1.42;;;0.90;;
31037;SDS011;17702;47.590;7.666;2023-07-13T11:58:15;3.90;;;0.90;;
31037;SDS011;17702;47.590;7.666;2023-07-13T12:00:46;1.48;;;0.90;;
31037;SDS011;17702;47.590;7.666;2023-07-13T12:03:13;2.33;;;0.77;;
31037;SDS011;17702;47.590;7.666;2023-07-13T12:05:58;4.63;;;0.63;;
31037;SDS011;17702;47.590;7.666;2023-07-13T12:08:26;2.23;;;1.00;;
31037;SDS011;17702;47.590;7.666;2023-07-13T12:10:56;5.80;;;0.88;;
31037;SDS011;17702;47.590;7.666;2023-07-13T12:13:34;3.10;;;0.90;;
31037;SDS011;17702;47.590;7.666;2023-07-13T12:16:01;2.97;;;0.82;;
31037;SDS011;17702;47.590;7.666;2023-07-13T12:18:28;2.63;;;0.82;;
31037;SDS011;17702;47.590;7.666;2023-07-13T12:20:57;1.73;;;0.80;;
31037;SDS011;17702;47.590;7.666;2023-07-13T12:23:25;4.78;;;0.80;;
31037;SDS011;17702;47.590;7.666;2023-07-13T12:25:58;1.17;;;0.65;;
31037;SDS011;17702;47.590;7.666;2023-07-13T12:31:00;1.02;;;0.60;;
31037;SDS011;17702;47.590;7.666;2023-07-13T12:33:29;3.70;;;0.88;;
31037;SDS011;17702;47.590;7.666;2023-07-13T12:35:57;1.58;;;0.90;;
31037;SDS011;17702;47.590;7.666;2023-07-13T12:38:25;3.92;;;1.13;;
31037;SDS011;17702;47.590;7.666;2023-07-13T12:40:51;3.30;;;1.00;;
31037;SDS011;17702;47.590;7.666;2023-07-13T12:43:20;1.60;;;0.63;;
31037;SDS011;17702;47.590;7.666;2023-07-13T12:46:02;2.33;;;1.08;;
31037;SDS011;17702;47.590;7.666;2023-07-13T12:48:29;5.93;;;1.02;;
31037;SDS011;17702;47.590;7.666;2023-07-13T12:51:02;2.83;;;1.10;;
31037;SDS011;17702;47.590;7.666;2023-07-13T12:53:28;2.15;;;0.93;;
31037;SDS011;17702;47.590;7.666;2023-07-13T12:55:59;1.90;;;0.60;;
31037;SDS011;17702;47.590;7.666;2023-07-13T12:58:37;3.97;;;0.70;;
31037;SDS011;17702;47.590;7.666;2023-07-13T13:01:09;1.15;;;0.50;;
31037;SDS011;17702;47.590;7.666;2023-07-13T13:06:20;2.25;;;1.20;;
31037;SDS011;17702;47.590;7.666;2023-07-13T13:08:58;1.55;;;0.90;;
31037;SDS011;17702;47.590;7.666;2023-07-13T13:11:25;1.75;;;1.02;;
31037;SDS011;17702;47.590;7.666;2023-07-13T13:13:52;2.45;;;0.90;;
31037;SDS011;17702;47.590;7.666;2023-07-13T13:18:57;0.80;;;0.60;;
31037;SDS011;17702;47.590;7.666;2023-07-13T13:23:53;2.47;;;0.80;;
31037;SDS011;17702;47.590;7.666;2023-07-13T13:26:19;4.00;;;0.75;;
31037;SDS011;17702;47.590;7.666;2023-07-13T13:28:47;1.15;;;0.68;;
31037;SDS011;17702;47.590;7.666;2023-07-13T13:31:13;0.93;;;0.70;;
31037;SDS011;17702;47.590;7.666;2023-07-13T13:33:40;2.40;;;0.90;;
31037;SDS011;17702;47.590;7.666;2023-07-13T13:36:16;1.65;;;0.75;;
31037;SDS011;17702;47.590;7.666;2023-07-13T13:38:47;6.50;;;0.70;;
31037;SDS011;17702;47.590;7.666;2023-07-13T13:41:14;1.50;;;0.90;;
31037;SDS011;17702;47.590;7.666;2023-07-13T13:43:41;1.27;;;0.70;;
31037;SDS011;17702;47.590;7.666;2023-07-13T13:46:11;1.67;;;0.57;;
31037;SDS011;17702;47.590;7.666;2023-07-13T13:48:42;1.60;;;0.82;;
31037;SDS011;17702;47.590;7.666;2023-07-13T13:51:14;2.83;;;0.80;;
31037;SDS011;17702;47.590;7.666;2023-07-13T13:53:47;3.45;;;1.05;;
31037;SDS011;17702;47.590;7.666;2023-07-13T13:56:13;1.58;;;0.77;;
31037;SDS011;17702;47.590;7.666;2023-07-13T13:58:39;1.38;;;0.55;;
31037;SDS011;17702;47.590;7.666;2023-07-13T14:01:09;1.02;;;0.70;;
31037;SDS011;17702;47.590;7.666;2023-07-13T14:03:39;0.82;;;0.70;;
31037;SDS011;17702;47.590;7.666;2023-07-13T14:06:05;1.50;;;0.50;;
31037;SDS011;17702;47.590;7.666;2023-07-13T14:08:30;1.83;;;0.55;;
31037;SDS011;17702;47.590;7.666;2023-07-13T14:10:57;3.83;;;0.70;;
31037;SDS011;17702;47.590;7.666;2023-07-13T14:13:27;2.13;;;0.73;;
31037;SDS011;17702;47.590;7.666;2023-07-13T14:15:58;0.80;;;0.60;;
31037;SDS011;17702;47.590;7.666;2023-07-13T14:18:24;1.08;;;0.65;;
31037;SDS011;17702;47.590;7.666;2023-07-13T14:20:50;1.17;;;0.52;;
31037;SDS011;17702;47.590;7.666;2023-07-13T14:23:17;1.83;;;0.70;;
31037;SDS011;17702;47.590;7.666;2023-07-13T14:25:43;0.80;;;0.60;;
31037;SDS011;17702;47.590;7.666;2023-07-13T14:28:26;3.47;;;0.60;;
31037;SDS011;17702;47.590;7.666;2023-07-13T14:30:53;2.42;;;0.80;;
31037;SDS011;17702;47.590;7.666;2023-07-13T14:33:19;2.30;;;0.70;;
31037;SDS011;17702;47.590;7.666;2023-07-13T14:35:45;2.20;;;0.70;;
31037;SDS011;17702;47.590;7.666;2023-07-13T14:38:13;1.20;;;0.60;;
31037;SDS011;17702;47.590;7.666;2023-07-13T14:40:43;2.70;;;0.80;;
31037;SDS011;17702;47.590;7.666;2023-07-13T14:43:12;2.67;;;0.80;;
31037;SDS011;17702;47.590;7.666;2023-07-13T14:45:40;1.83;;;0.70;;
31037;SDS011;17702;47.590;7.666;2023-07-13T14:48:18;2.28;;;0.82;;
31037;SDS011;17702;47.590;7.666;2023-07-13T14:50:57;2.65;;;1.00;;
31037;SDS011;17702;47.590;7.666;2023-07-13T14:53:27;4.10;;;0.93;;
31037;SDS011;17702;47.590;7.666;2023-07-13T14:55:53;2.15;;;1.00;;
31037;SDS011;17702;47.590;7.666;2023-07-13T14:58:18;0.68;;;0.60;;
31037;SDS011;17702;47.590;7.666;2023-07-13T15:00:44;2.72;;;0.82;;
31037;SDS011;17702;47.590;7.666;2023-07-13T15:03:29;2.45;;;0.80;;
31037;SDS011;17702;47.590;7.666;2023-07-13T15:05:55;3.55;;;0.90;;
31037;SDS011;17702;47.590;7.666;2023-07-13T15:08:20;2.50;;;0.73;;
31037;SDS011;17702;47.590;7.666;2023-07-13T15:10:46;2.83;;;0.90;;
31037;SDS011;17702;47.590;7.666;2023-07-13T15:13:13;2.25;;;0.90;;
31037;SDS011;17702;47.590;7.666;2023-07-13T15:15:42;2.22;;;1.20;;
31037;SDS011;17702;47.590;7.666;2023-07-13T15:18:12;6.03;;;1.20;;
31037;SDS011;17702;47.590;7.666;2023-07-13T15:20:39;2.38;;;1.00;;
31037;SDS011;17702;47.590;7.666;2023-07-13T15:23:05;3.90;;;0.80;;
31037;SDS011;17702;47.590;7.666;2023-07-13T15:25:31;0.88;;;0.82;;
31037;SDS011;17702;47.590;7.666;2023-07-13T15:27:58;1.90;;;0.80;;
31037;SDS011;17702;47.590;7.666;2023-07-13T15:30:25;2.22;;;0.60;;
31037;SDS011;17702;47.590;7.666;2023-07-13T15:32:54;3.47;;;0.63;;
31037;SDS011;17702;47.590;7.666;2023-07-13T15:35:27;3.28;;;0.90;;
31037;SDS011;17702;47.590;7.666;2023-07-13T15:37:53;2.55;;;0.75;;
31037;SDS011;17702;47.590;7.666;2023-07-13T15:40:19;2.55;;;0.82;;
31037;SDS011;17702;47.590;7.666;2023-07-13T15:42:47;1.48;;;0.77;;
31037;SDS011;17702;47.590;7.666;2023-07-13T15:47:49;3.42;;;0.93;;
31037;SDS011;17702;47.590;7.666;2023-07-13T15:50:17;2.67;;;0.98;;
31037;SDS011;17702;47.590;7.666;2023-07-13T15:52:46;3.47;;;1.70;;